createdAt,value
2023-03-27T00:01:17.897Z,1.83
2023-03-27T00:03:49.276Z,2.28
2023-03-27T00:06:18.899Z,2.38
2023-03-27T00:08:48.595Z,1.85
2023-03-27T00:11:16.858Z,2.38
2023-03-27T00:13:50.302Z,2.20
2023-03-27T00:16:19.809Z,2.40
2023-03-27T00:18:47.613Z,2.40
2023-03-27T00:21:15.333Z,1.88
2023-03-27T00:23:43.157Z,2.28
2023-03-27T00:26:11.859Z,1.58
2023-03-27T00:28:39.992Z,2.25
2023-03-27T00:31:12.523Z,1.63
2023-03-27T00:33:40.875Z,1.85
2023-03-27T00:36:09.614Z,1.88
2023-03-27T00:38:39.450Z,1.27
2023-03-27T00:41:08.464Z,0.90
2023-03-27T00:43:37.276Z,1.58
2023-03-27T00:46:09.607Z,1.23
2023-03-27T00:48:38.977Z,1.20
2023-03-27T00:51:07.808Z,1.27
2023-03-27T00:53:37.171Z,1.80
2023-03-27T00:56:08.011Z,1.20
2023-03-27T00:58:41.652Z,1.85
2023-03-27T01:01:14.373Z,1.60
2023-03-27T01:03:46.921Z,1.67
2023-03-27T01:06:19.805Z,1.50
2023-03-27T01:08:48.188Z,1.05
2023-03-27T01:11:23.709Z,1.60
2023-03-27T01:14:13.846Z,1.20
2023-03-27T01:16:54.425Z,2.10
2023-03-27T01:19:57.467Z,1.75
2023-03-27T01:23:04.904Z,1.00
2023-03-27T01:26:04.532Z,1.42
2023-03-27T01:28:41.228Z,1.23
2023-03-27T01:31:21.738Z,1.23
2023-03-27T01:34:13.340Z,1.83
2023-03-27T01:37:06.464Z,1.20
2023-03-27T01:39:49.426Z,1.77
2023-03-27T01:42:24.188Z,1.70
2023-03-27T01:44:58.528Z,1.27
2023-03-27T01:47:39.959Z,1.50
2023-03-27T01:50:15.278Z,1.75
2023-03-27T01:52:48.767Z,1.70
2023-03-27T01:55:24.120Z,1.92
2023-03-27T01:58:00.606Z,1.13
2023-03-27T02:00:51.348Z,1.70
2023-03-27T02:03:20.599Z,1.90
2023-03-27T02:05:53.330Z,2.75
2023-03-27T02:08:26.233Z,3.25
2023-03-27T02:11:01.404Z,4.10
2023-03-27T02:13:34.761Z,3.65
2023-03-27T02:16:05.282Z,4.85
2023-03-27T02:18:35.890Z,4.72
2023-03-27T02:21:04.294Z,3.92
2023-03-27T02:23:33.254Z,4.03
2023-03-27T02:26:02.600Z,5.43
2023-03-27T02:28:37.627Z,3.42
2023-03-27T02:31:32.425Z,3.40
2023-03-27T02:34:23.628Z,3.70
2023-03-27T02:36:56.170Z,4.05
2023-03-27T02:39:40.292Z,5.28
2023-03-27T02:42:15.982Z,4.05
2023-03-27T02:44:56.934Z,3.58
2023-03-27T02:47:32.445Z,3.03
2023-03-27T02:50:05.948Z,3.53
2023-03-27T02:52:40.637Z,2.95
2023-03-27T02:55:15.628Z,5.30
2023-03-27T02:57:52.049Z,3.45
2023-03-27T03:00:28.958Z,4.10
2023-03-27T03:03:21.404Z,4.53
2023-03-27T03:05:59.026Z,4.78
2023-03-27T03:08:30.461Z,3.88
2023-03-27T03:11:04.390Z,3.90
2023-03-27T03:13:33.788Z,4.22
2023-03-27T03:16:01.517Z,3.15
2023-03-27T03:18:29.303Z,4.20
2023-03-27T03:20:59.871Z,6.57
2023-03-27T03:23:27.753Z,3.20
2023-03-27T03:25:56.790Z,4.28
2023-03-27T03:28:27.504Z,4.00
2023-03-27T03:30:58.965Z,4.38
2023-03-27T03:33:27.947Z,3.65
2023-03-27T03:35:58.971Z,3.72
2023-03-27T03:38:37.821Z,2.70
2023-03-27T03:41:12.841Z,4.07
2023-03-27T03:43:41.317Z,4.70
2023-03-27T03:46:11.248Z,4.72
2023-03-27T03:48:41.453Z,4.30
2023-03-27T03:51:09.123Z,4.20
2023-03-27T03:53:36.884Z,3.53
2023-03-27T03:56:05.002Z,3.30
2023-03-27T03:58:34.924Z,4.20
2023-03-27T04:01:06.050Z,3.88
2023-03-27T04:03:57.814Z,2.72
2023-03-27T04:06:27.347Z,2.42
2023-03-27T04:08:59.323Z,2.15
2023-03-27T04:11:49.904Z,2.78
2023-03-27T04:14:36.343Z,2.20
2023-03-27T04:17:12.523Z,2.65
2023-03-27T04:19:42.001Z,2.60
2023-03-27T04:22:09.829Z,2.80
2023-03-27T04:24:37.635Z,2.45
2023-03-27T04:27:06.766Z,2.45
2023-03-27T04:29:43.568Z,1.85
2023-03-27T04:32:30.158Z,2.67
2023-03-27T04:35:20.179Z,1.80
2023-03-27T04:37:54.397Z,3.22
2023-03-27T04:40:38.887Z,2.03
2023-03-27T04:43:07.606Z,2.58
2023-03-27T04:45:35.405Z,2.28
2023-03-27T04:48:06.851Z,1.67
2023-03-27T04:50:37.352Z,2.10
2023-03-27T04:53:05.330Z,1.98
2023-03-27T04:55:40.529Z,2.50
2023-03-27T04:58:09.748Z,2.17
2023-03-27T05:00:38.588Z,1.80
2023-03-27T05:03:35.660Z,1.60
2023-03-27T05:06:12.889Z,1.58
2023-03-27T05:08:42.481Z,2.22
2023-03-27T05:11:19.402Z,1.95
2023-03-27T05:13:47.300Z,1.65
2023-03-27T05:16:18.555Z,2.13
2023-03-27T05:18:50.119Z,1.23
2023-03-27T05:21:19.832Z,2.45
2023-03-27T05:23:48.292Z,3.20
2023-03-27T05:26:22.270Z,1.33
2023-03-27T05:28:58.589Z,2.08
2023-03-27T05:31:28.000Z,2.05
2023-03-27T05:34:21.859Z,2.47
2023-03-27T05:36:54.094Z,2.63
2023-03-27T05:39:22.036Z,1.75
2023-03-27T05:41:50.630Z,2.10
2023-03-27T05:44:23.517Z,1.67
2023-03-27T05:46:51.689Z,1.30
2023-03-27T05:49:26.003Z,2.13
2023-03-27T05:52:00.761Z,1.92
2023-03-27T05:54:28.514Z,1.73
2023-03-27T05:57:04.437Z,1.85
2023-03-27T05:59:33.317Z,1.60
2023-03-27T06:02:19.918Z,1.55
2023-03-27T06:04:55.271Z,1.75
2023-03-27T06:07:31.057Z,1.23
2023-03-27T06:10:04.095Z,2.25
2023-03-27T06:13:02.845Z,1.73
2023-03-27T06:15:40.062Z,2.13
2023-03-27T06:18:37.657Z,1.20
2023-03-27T06:21:06.488Z,2.65
2023-03-27T06:23:35.875Z,1.67
2023-03-27T06:26:10.509Z,2.20
2023-03-27T06:28:39.808Z,1.73
2023-03-27T06:31:08.877Z,1.80
2023-03-27T06:33:58.179Z,2.00
2023-03-27T06:36:52.119Z,1.05
2023-03-27T06:39:22.860Z,2.17
2023-03-27T06:41:53.447Z,1.20
2023-03-27T06:44:21.266Z,1.35
2023-03-27T06:47:10.004Z,1.27
2023-03-27T06:49:48.683Z,1.63
2023-03-27T06:52:21.998Z,0.82
2023-03-27T06:54:51.175Z,1.20
2023-03-27T06:57:18.925Z,2.10
2023-03-27T06:59:53.449Z,2.03
2023-03-27T07:02:25.315Z,1.02
2023-03-27T07:05:14.598Z,1.55
2023-03-27T07:07:43.749Z,1.60
2023-03-27T07:10:13.757Z,1.63
2023-03-27T07:12:45.417Z,1.85
2023-03-27T07:15:16.308Z,1.83
2023-03-27T07:17:49.117Z,1.23
2023-03-27T07:20:19.620Z,1.55
2023-03-27T07:22:48.125Z,1.48
2023-03-27T07:25:41.966Z,1.60
2023-03-27T07:28:16.814Z,0.88
2023-03-27T07:30:44.980Z,1.55
2023-03-27T07:33:14.199Z,1.83
2023-03-27T07:35:43.532Z,1.90
2023-03-27T07:41:29.952Z,1.38
2023-03-27T07:49:04.828Z,1.20
2023-03-27T07:51:33.046Z,2.10
2023-03-27T07:54:04.189Z,1.45
2023-03-27T07:56:37.741Z,1.55
2023-03-27T07:59:38.151Z,1.92
2023-03-27T08:02:12.401Z,1.10
2023-03-27T08:04:41.692Z,1.63
2023-03-27T08:07:11.659Z,2.13
2023-03-27T08:09:42.093Z,2.28
2023-03-27T08:12:11.518Z,2.13
2023-03-27T08:14:45.635Z,1.77
2023-03-27T08:19:49.023Z,0.60
2023-03-27T08:22:18.858Z,1.25
2023-03-27T08:25:15.528Z,1.80
2023-03-27T08:27:46.672Z,0.98
2023-03-27T08:30:17.495Z,1.38
2023-03-27T08:32:46.260Z,1.45
2023-03-27T08:35:19.480Z,1.48
2023-03-27T08:37:47.265Z,1.85
2023-03-27T08:40:29.502Z,1.00
2023-03-27T08:43:21.942Z,1.50
2023-03-27T08:45:54.487Z,1.67
2023-03-27T08:48:30.701Z,1.08
2023-03-27T08:51:04.403Z,1.20
2023-03-27T08:53:38.170Z,1.60
2023-03-27T08:56:09.095Z,1.85
2023-03-27T08:58:42.601Z,1.60
2023-03-27T09:01:33.529Z,0.80
2023-03-27T09:04:17.778Z,1.65
2023-03-27T09:06:58.209Z,1.48
2023-03-27T09:09:40.095Z,1.65
2023-03-27T09:14:53.767Z,1.30
2023-03-27T09:17:28.345Z,1.05
2023-03-27T09:20:11.663Z,2.63
2023-03-27T09:22:44.777Z,1.30
2023-03-27T09:25:24.349Z,1.27
2023-03-27T09:28:20.688Z,1.02
2023-03-27T09:30:57.264Z,1.30
2023-03-27T09:33:30.380Z,1.50
2023-03-27T09:35:59.850Z,1.20
2023-03-27T09:38:33.244Z,1.02
2023-03-27T09:41:06.848Z,1.00
2023-03-27T09:43:42.038Z,1.27
2023-03-27T09:46:17.455Z,1.30
2023-03-27T09:48:56.634Z,1.80
2023-03-27T09:51:48.699Z,2.00
2023-03-27T09:54:52.680Z,1.08
2023-03-27T09:57:23.069Z,1.60
2023-03-27T09:59:59.420Z,1.70
2023-03-27T10:02:31.084Z,1.15
2023-03-27T10:05:01.345Z,1.02
2023-03-27T10:07:34.464Z,1.10
2023-03-27T10:10:32.716Z,1.83
2023-03-27T10:13:04.361Z,1.10
2023-03-27T10:15:42.270Z,1.00
2023-03-27T10:18:27.166Z,1.58
2023-03-27T10:21:10.685Z,1.40
2023-03-27T10:23:46.123Z,1.20
2023-03-27T10:26:29.141Z,1.63
2023-03-27T10:29:02.134Z,0.90
2023-03-27T10:31:50.580Z,1.08
2023-03-27T10:34:57.261Z,1.30
2023-03-27T10:37:49.805Z,0.73
2023-03-27T10:40:40.582Z,1.98
2023-03-27T10:43:29.726Z,1.70
2023-03-27T10:46:01.453Z,1.20
2023-03-27T10:48:42.837Z,1.17
2023-03-27T10:51:33.174Z,1.40
2023-03-27T10:54:17.818Z,1.17
2023-03-27T10:56:58.570Z,1.40
2023-03-27T10:59:40.927Z,1.50
2023-03-27T11:02:20.275Z,1.50
2023-03-27T11:04:56.150Z,1.50
2023-03-27T11:07:33.852Z,1.30
2023-03-27T11:10:12.886Z,1.02
2023-03-27T11:12:43.913Z,1.20
2023-03-27T11:15:15.757Z,1.00
2023-03-27T11:17:49.097Z,1.50
2023-03-27T11:20:26.207Z,1.27
2023-03-27T11:23:19.903Z,1.48
2023-03-27T11:26:08.898Z,0.95
2023-03-27T11:28:43.362Z,0.75
2023-03-27T11:31:24.484Z,1.02
2023-03-27T11:33:57.103Z,0.90
2023-03-27T11:36:39.484Z,1.50
2023-03-27T11:39:25.083Z,0.80
2023-03-27T11:41:55.631Z,1.08
2023-03-27T11:44:25.793Z,1.58
2023-03-27T11:47:31.642Z,1.30
2023-03-27T11:50:30.519Z,1.23
2023-03-27T11:53:13.759Z,0.90
2023-03-27T11:56:17.942Z,1.45
2023-03-27T11:59:08.529Z,0.90
2023-03-27T12:04:14.943Z,0.93
2023-03-27T12:07:12.301Z,0.98
2023-03-27T12:10:00.300Z,1.15
2023-03-27T12:13:31.504Z,2.63
2023-03-27T12:16:26.518Z,1.02
2023-03-27T12:19:27.769Z,0.80
2023-03-27T12:22:45.109Z,0.50
2023-03-27T12:25:37.672Z,0.90
2023-03-27T12:28:41.137Z,1.30
2023-03-27T12:31:37.504Z,0.93
2023-03-27T12:34:07.130Z,1.08
2023-03-27T12:36:39.353Z,1.50
2023-03-27T12:39:16.590Z,1.20
2023-03-27T12:41:46.200Z,1.73
2023-03-27T12:45:13.594Z,0.98
2023-03-27T12:47:46.134Z,1.08
2023-03-27T12:50:22.548Z,1.05
2023-03-27T12:52:53.131Z,1.13
2023-03-27T12:55:36.862Z,1.10
2023-03-27T12:58:34.217Z,0.70
2023-03-27T13:04:39.446Z,1.33
2023-03-27T13:07:17.464Z,1.48
2023-03-27T13:10:19.149Z,1.73
2023-03-27T13:13:21.879Z,1.92
2023-03-27T13:16:01.916Z,1.67
2023-03-27T13:18:50.930Z,2.90
2023-03-27T13:21:29.614Z,3.83
2023-03-27T13:24:22.912Z,1.75
2023-03-27T13:27:08.902Z,2.30
2023-03-27T13:29:39.523Z,2.42
2023-03-27T13:32:35.061Z,2.33
2023-03-27T13:35:41.932Z,1.50
2023-03-27T13:38:13.502Z,2.38
2023-03-27T13:41:39.378Z,1.35
2023-03-27T13:44:21.031Z,1.20
2023-03-27T13:46:54.989Z,1.47
2023-03-27T13:49:45.582Z,1.65
2023-03-27T13:52:36.410Z,1.92
2023-03-27T13:55:37.550Z,1.08
2023-03-27T13:58:59.239Z,1.10
2023-03-27T14:01:38.033Z,0.95
2023-03-27T14:04:38.125Z,0.70
2023-03-27T14:07:41.775Z,1.52
2023-03-27T14:10:38.022Z,1.42
2023-03-27T14:13:24.315Z,1.50
2023-03-27T14:16:15.567Z,1.80
2023-03-27T14:19:07.850Z,1.92
2023-03-27T14:21:53.501Z,1.50
2023-03-27T14:24:32.407Z,2.35
2023-03-27T14:27:15.954Z,2.00
2023-03-27T14:29:45.132Z,2.10
2023-03-27T14:32:17.993Z,2.05
2023-03-27T14:34:54.343Z,1.98
2023-03-27T14:37:55.784Z,1.40
2023-03-27T14:40:35.652Z,1.65
2023-03-27T14:45:40.228Z,1.70
2023-03-27T14:48:21.132Z,1.30
2023-03-27T14:50:53.323Z,1.25
2023-03-27T14:53:26.573Z,1.00
2023-03-27T14:56:21.140Z,0.95
2023-03-27T14:59:03.656Z,1.25
2023-03-27T15:01:52.250Z,1.00
2023-03-27T15:04:20.800Z,0.70
2023-03-27T15:06:50.057Z,1.00
2023-03-27T15:09:38.613Z,0.73
2023-03-27T15:12:34.508Z,1.45
2023-03-27T15:15:03.576Z,1.30
2023-03-27T15:17:38.614Z,0.95
2023-03-27T15:20:11.217Z,1.73
2023-03-27T15:22:43.138Z,1.05
2023-03-27T15:25:17.878Z,1.80
2023-03-27T15:27:53.169Z,1.58
2023-03-27T15:30:28.387Z,1.45
2023-03-27T15:33:01.757Z,1.15
2023-03-27T15:35:34.442Z,1.30
2023-03-27T15:38:03.254Z,1.35
2023-03-27T15:40:42.565Z,1.50
2023-03-27T15:43:23.489Z,0.93
2023-03-27T15:46:15.003Z,1.83
2023-03-27T15:48:45.430Z,1.50
2023-03-27T15:51:27.932Z,1.70
2023-03-27T15:53:56.723Z,1.80
2023-03-27T15:56:29.080Z,2.03
2023-03-27T15:59:01.320Z,1.65
2023-03-27T16:01:32.663Z,1.13
2023-03-27T16:04:05.147Z,0.80
2023-03-27T16:06:37.484Z,1.48
2023-03-27T16:09:19.152Z,1.40
2023-03-27T16:11:48.735Z,1.60
2023-03-27T16:14:30.258Z,1.30
2023-03-27T16:17:24.844Z,1.23
2023-03-27T16:19:54.929Z,1.45
2023-03-27T16:22:24.419Z,1.30
2023-03-27T16:24:53.100Z,1.15
2023-03-27T16:27:23.361Z,1.63
2023-03-27T16:29:53.355Z,1.80
2023-03-27T16:32:22.940Z,1.30
2023-03-27T16:34:52.268Z,0.98
2023-03-27T16:37:22.036Z,1.08
2023-03-27T16:39:50.882Z,1.02
2023-03-27T16:42:22.641Z,1.35
2023-03-27T16:44:53.813Z,1.40
2023-03-27T16:47:23.216Z,1.00
2023-03-27T16:50:09.856Z,1.60
2023-03-27T16:52:38.573Z,1.10
2023-03-27T16:55:08.018Z,2.47
2023-03-27T16:57:38.880Z,2.10
2023-03-27T17:00:11.632Z,0.98
2023-03-27T17:02:39.878Z,1.55
2023-03-27T17:05:09.608Z,1.52
2023-03-27T17:07:37.687Z,2.00
2023-03-27T17:10:06.713Z,2.78
2023-03-27T17:12:34.382Z,2.35
2023-03-27T17:15:02.385Z,2.35
2023-03-27T17:17:32.873Z,2.10
2023-03-27T17:20:00.954Z,1.95
2023-03-27T17:22:30.129Z,1.77
2023-03-27T17:25:01.048Z,1.80
2023-03-27T17:27:29.159Z,1.60
2023-03-27T17:29:57.488Z,1.55
2023-03-27T17:32:27.725Z,2.05
2023-03-27T17:34:56.985Z,1.17
2023-03-27T17:37:25.893Z,1.83
2023-03-27T17:39:53.820Z,2.00
2023-03-27T17:42:21.645Z,1.58
2023-03-27T17:44:49.361Z,1.98
2023-03-27T17:47:17.198Z,1.42
2023-03-27T17:49:45.273Z,1.05
2023-03-27T17:52:14.414Z,2.13
2023-03-27T17:54:42.154Z,2.42
2023-03-27T17:57:10.156Z,2.92
2023-03-27T17:59:38.420Z,2.50
2023-03-27T18:02:07.380Z,3.28
2023-03-27T18:04:36.365Z,3.53
2023-03-27T18:07:04.184Z,3.28
2023-03-27T18:09:38.452Z,3.05
2023-03-27T18:12:09.120Z,2.50
2023-03-27T18:14:36.910Z,1.77
2023-03-27T18:17:05.176Z,1.40
2023-03-27T18:19:32.831Z,2.50
2023-03-27T18:22:00.630Z,1.83
2023-03-27T18:24:28.543Z,1.63
2023-03-27T18:26:57.673Z,3.00
2023-03-27T18:29:25.338Z,3.70
2023-03-27T18:31:53.266Z,3.75
2023-03-27T18:34:21.134Z,4.07
2023-03-27T18:36:51.753Z,4.05
2023-03-27T18:39:19.653Z,4.40
2023-03-27T18:41:47.708Z,7.47
2023-03-27T18:44:18.189Z,3.35
2023-03-27T18:46:46.041Z,3.30
2023-03-27T18:49:24.307Z,2.92
2023-03-27T18:51:53.195Z,2.92
2023-03-27T18:54:21.117Z,3.28
2023-03-27T18:56:49.027Z,3.38
2023-03-27T18:59:18.194Z,3.42
2023-03-27T19:01:46.125Z,2.20
2023-03-27T19:04:15.805Z,1.95
2023-03-27T19:06:46.130Z,1.42
2023-03-27T19:09:14.223Z,2.80
2023-03-27T19:11:43.869Z,2.17
2023-03-27T19:14:33.647Z,2.13
2023-03-27T19:17:21.099Z,1.65
2023-03-27T19:20:11.079Z,1.58
2023-03-27T19:23:11.305Z,2.05
2023-03-27T19:25:47.719Z,2.90
2023-03-27T19:28:15.774Z,1.58
2023-03-27T19:30:45.496Z,3.78
2023-03-27T19:33:13.319Z,2.03
2023-03-27T19:35:41.006Z,2.88
2023-03-27T19:38:08.814Z,1.55
2023-03-27T19:40:36.736Z,1.98
2023-03-27T19:43:04.458Z,1.77
2023-03-27T19:45:32.238Z,2.20
2023-03-27T19:48:01.343Z,2.33
2023-03-27T19:50:29.031Z,3.40
2023-03-27T19:53:29.591Z,2.08
2023-03-27T19:55:57.750Z,2.22
2023-03-27T19:58:29.142Z,1.70
2023-03-27T20:00:57.702Z,3.20
2023-03-27T20:03:27.409Z,2.45
2023-03-27T20:06:07.034Z,2.35
2023-03-27T20:08:38.229Z,2.10
2023-03-27T20:11:07.268Z,1.13
2023-03-27T20:13:45.408Z,3.13
2023-03-27T20:16:22.229Z,2.25
2023-03-27T20:18:55.078Z,3.47
2023-03-27T20:21:24.709Z,3.83
2023-03-27T20:23:54.725Z,1.48
2023-03-27T20:26:32.403Z,1.50
2023-03-27T20:29:08.091Z,2.00
2023-03-27T20:31:36.367Z,1.23
2023-03-27T20:34:06.514Z,1.45
2023-03-27T20:36:34.827Z,1.02
2023-03-27T20:39:14.115Z,1.52
2023-03-27T20:41:42.088Z,1.70
2023-03-27T20:44:16.372Z,1.35
2023-03-27T20:46:47.069Z,1.08
2023-03-27T20:51:57.137Z,1.67
2023-03-27T20:54:24.834Z,1.90
2023-03-27T20:56:52.687Z,2.20
2023-03-27T20:59:20.518Z,2.38
2023-03-27T21:01:48.293Z,1.70
2023-03-27T21:04:17.396Z,1.40
2023-03-27T21:06:45.489Z,1.83
2023-03-27T21:09:14.544Z,1.63
2023-03-27T21:11:42.626Z,1.42
2023-03-27T21:14:10.338Z,1.80
2023-03-27T21:16:38.404Z,1.30
2023-03-27T21:19:06.309Z,1.63
2023-03-27T21:21:38.648Z,1.60
2023-03-27T21:24:06.907Z,3.28
2023-03-27T21:26:35.290Z,2.15
2023-03-27T21:29:03.338Z,1.40
2023-03-27T21:31:31.392Z,1.40
2023-03-27T21:33:59.185Z,0.85
2023-03-27T21:36:29.421Z,1.67
2023-03-27T21:38:59.154Z,1.45
2023-03-27T21:41:27.716Z,0.63
2023-03-27T21:43:55.412Z,1.38
2023-03-27T21:46:23.274Z,0.90
2023-03-27T21:48:51.748Z,0.68
2023-03-27T21:51:20.244Z,1.40
2023-03-27T21:53:48.272Z,1.75
2023-03-27T21:56:17.370Z,1.60
2023-03-27T21:58:45.286Z,0.90
2023-03-27T22:01:13.258Z,1.58
2023-03-27T22:03:41.294Z,2.13
2023-03-27T22:06:12.943Z,1.80
2023-03-27T22:08:42.939Z,1.60
2023-03-27T22:11:11.819Z,1.45
2023-03-27T22:13:41.772Z,1.70
2023-03-27T22:16:12.133Z,2.08
2023-03-27T22:18:40.410Z,1.33
2023-03-27T22:21:16.727Z,1.38
2023-03-27T22:23:44.547Z,1.05
2023-03-27T22:26:12.868Z,0.80
2023-03-27T22:28:42.040Z,0.77
2023-03-27T22:31:10.045Z,0.70
2023-03-27T22:33:38.054Z,0.73
2023-03-27T22:36:08.901Z,0.98
2023-03-27T22:38:36.646Z,1.50
2023-03-27T22:41:06.333Z,1.90
2023-03-27T22:43:34.422Z,1.80
2023-03-27T22:46:07.316Z,1.45
2023-03-27T22:48:35.806Z,1.45
2023-03-27T22:51:04.382Z,1.77
2023-03-27T22:53:32.777Z,0.95
2023-03-27T22:56:01.706Z,2.95
2023-03-27T22:58:30.589Z,1.73
2023-03-27T23:00:58.822Z,2.05
2023-03-27T23:03:28.949Z,1.80
2023-03-27T23:05:57.098Z,1.60
2023-03-27T23:08:28.369Z,1.25
2023-03-27T23:10:57.596Z,2.17
2023-03-27T23:13:25.959Z,2.30
2023-03-27T23:15:53.719Z,2.00
2023-03-27T23:18:24.466Z,2.53
2023-03-27T23:20:58.198Z,1.30
2023-03-27T23:23:26.803Z,2.13
2023-03-27T23:25:55.375Z,1.02
2023-03-27T23:28:23.144Z,1.92
2023-03-27T23:30:54.721Z,1.40
2023-03-27T23:33:24.898Z,1.80
2023-03-27T23:35:54.009Z,1.42
2023-03-27T23:38:23.078Z,1.75
2023-03-27T23:40:56.555Z,1.70
2023-03-27T23:43:24.562Z,1.20
2023-03-27T23:45:52.366Z,1.13
2023-03-27T23:48:20.465Z,1.35
2023-03-27T23:50:48.688Z,1.05
2023-03-27T23:53:17.066Z,1.45
2023-03-27T23:55:46.392Z,1.15
2023-03-27T23:58:14.176Z,1.75
